Terminal Aerodrome Forecast
Issued by NWS El Paso, TX

Home | Current Version | Previous Version | Text Only | Print | Product List | Glossary On
Versions: 1 2 3 4 5 6 7 8 9 10 11 12
000
FTUS44 KEPZ 292335
TAFELP
TAF
KELP 292335Z 3000/3024 22009KT P6SM FEW150 SCT250
     FM301200 20008KT P6SM FEW070 BKN110
     FM301800 23015G25KT P6SM FEW110 SCT150 SCT250=

USA.gov is the U.S. government's official web portal to all federal, state and local government web resources and services.